Ginys del Meteocat

Dades de l'estació automàtica Caldes de Montbui

?
?
Resum diari 22:30 TU
Dades diàries de l'estació meteorològica
Temperatura mitjana 7.3 °C
Temperatura màxima 16.0 °C 14:02 TU
Temperatura mínima 1.3 °C 6:22 TU
Humitat relativa mitjana 86%
Precipitació acumulada 0.1 mm
Ratxa màxima del vent (10 m) 15.5 km/h - 190º 14:13 TU
Pressió atmosfèrica mitjana 1022.1 hPa
Irradiació solar global 9.4 MJ/m2

El tram horari està expressat en Temps Universal (TU). Cal sumar una hora en horari d'hivern i dues en horari d'estiu per passar a l'hora oficial.

Caldes de Montbui

Metadades estació meteorol´gica
Municipi Caldes de Montbui
Comarca Vallès Oriental
Altitud 176 m
Data alta 08.03.2007
Estat actual Operativa
Dades de període
Període
TU
TM
°C
TX
°C
TN
°C
HRM
%
PPT
mm
VVM (10 m)
km/h
DVM (10 m)
graus
VVX (10 m)
km/h
PM
hPa
RS
W/m2
00:00 - 00:30 4.4 4.8 4.1 97 0.0 0.7 334 2.9 1024.1 0
00:30 - 01:00 4.3 4.7 3.7 97 0.0 1.4 351 4.3 1024.0 0
01:00 - 01:30 4.0 4.2 3.9 97 0.0 4.3 347 6.8 1023.9 0
01:30 - 02:00 4.1 4.3 3.9 97 0.0 3.6 346 5.0 1023.7 0
02:00 - 02:30 3.9 4.3 3.5 97 0.0 4.0 340 7.2 1023.5 0
02:30 - 03:00 3.9 4.2 3.6 97 0.1 4.3 338 6.5 1023.3 0
03:00 - 03:30 3.7 4.1 3.1 96 0.0 3.6 344 6.5 1022.9 0
03:30 - 04:00 3.1 3.7 2.8 97 0.0 3.6 345 5.0 1022.7 0
04:00 - 04:30 3.2 3.4 3.0 97 0.0 2.9 349 4.7 1022.6 0
04:30 - 05:00 3.0 3.3 2.8 97 0.0 3.2 351 6.1 1022.5 0
05:00 - 05:30 3.0 3.3 2.8 97 0.0 3.6 349 8.6 1022.3 0
05:30 - 06:00 2.5 3.0 2.2 97 0.0 0.7 143 2.9 1022.5 0
06:00 - 06:30 1.7 2.2 1.3 98 0.0 1.1 62 4.0 1022.7 0
06:30 - 07:00 1.8 2.0 1.6 99 0.0 3.6 345 5.4 1022.9 0
07:00 - 07:30 2.0 2.3 1.6 99 0.0 3.2 351 7.9 1023.1 8
07:30 - 08:00 2.3 2.6 2.1 99 0.0 0.4 141 1.4 1023.2 44
08:00 - 08:30 3.1 4.1 2.5 99 0.0 0.7 310 1.8 1023.1 94
08:30 - 09:00 4.6 5.6 4.1 97 0.0 0.4 135 2.2 1023.1 162
09:00 - 09:30 6.7 7.8 5.7 89 0.0 0.4 133 2.5 1022.9 233
09:30 - 10:00 7.8 7.9 7.7 87 0.0 3.6 165 6.8 1022.9 306
10:00 - 10:30 8.3 9.0 7.8 88 0.0 4.0 162 6.8 1022.9 365
10:30 - 11:00 9.4 9.7 9.0 84 0.0 3.6 152 7.2 1022.6 412
11:00 - 11:30 10.0 10.7 9.6 79 0.0 4.7 151 7.9 1022.3 446
11:30 - 12:00 11.4 12.0 10.7 77 0.0 2.5 165 5.8 1021.7 459
12:00 - 12:30 12.2 12.4 11.9 76 0.0 3.6 148 7.2 1021.3 462
12:30 - 13:00 12.7 13.1 12.3 73 0.0 4.3 151 9.7 1020.8 452
13:00 - 13:30 13.8 15.4 13.1 69 0.0 3.6 138 7.9 1020.3 434
13:30 - 14:00 15.3 15.9 14.8 57 0.0 4.7 142 9.4 1019.9 407
14:00 - 14:30 15.7 16.0 15.4 51 0.0 7.2 210 15.5 1019.7 345
14:30 - 15:00 15.7 15.9 15.5 51 0.0 6.8 204 13.7 1019.6 286
15:00 - 15:30 15.5 15.8 15.3 52 0.0 6.1 222 12.6 1019.6 202
15:30 - 16:00 15.0 15.3 14.6 56 0.0 5.4 237 10.1 1019.8 121
16:00 - 16:30 13.5 14.5 12.8 67 0.0 4.7 261 7.6 1020.1 43
16:30 - 17:00 11.8 12.7 10.1 74 0.0 4.7 282 9.4 1020.2 8
17:00 - 17:30 9.0 10.0 8.6 86 0.0 8.3 335 13.0 1020.6 0
17:30 - 18:00 8.4 8.9 8.0 86 0.0 8.3 334 10.8 1020.9 0
18:00 - 18:30 7.9 8.1 7.7 86 0.0 6.5 336 9.4 1021.2 0
18:30 - 19:00 7.7 7.9 7.5 86 0.0 10.4 338 14.8 1021.5 0
19:00 - 19:30 7.4 7.8 7.0 86 0.0 9.7 336 13.0 1021.8 0
19:30 - 20:00 7.1 7.4 6.7 87 0.0 6.8 342 10.8 1022.2 0
20:00 - 20:30 6.6 7.0 6.4 89 0.0 7.2 335 9.7 1022.6 0
20:30 - 21:00 6.3 6.4 6.1 90 0.0 9.7 332 13.0 1022.7 0
21:00 - 21:30 6.1 6.3 6.0 90 0.0 9.4 336 14.8 1022.8 0
21:30 - 22:00 6.0 6.1 6.0 90 0.0 10.8 336 14.8 1022.8 0
22:00 - 22:30 6.1 6.3 6.0 90 0.0 9.7 338 13.3 1022.8 0
22:30 - 23:00 6.0 6.2 5.7 91 0.0 10.1 336 14.8 1022.7 0

Les dades en taronja només han passat un control de qualitat automàtic. Resta pendent la seva validació definitiva.